North Bend, Oregon
Current Conditions -  °F | °C
As of 10:55 PM on Monday 20 Oct 2014 (Local Time) from KOTH Reporting Station
Broken Clouds Broken Clouds  
Wind Chill: 54°   Ceiling: 8000
Heat Index: 54°   Visibility: 10mi
Dew Point: 54°   Wind: 7mph
Humidity: 100%   Direction: 150°SSE
Pressure: 29.93"   Gusts: NA
Location:  43.41°N, 124.22°W
Report Text: KOTH 210555Z 15006KT 10SM FEW027 BKN080 12/12 A2993 RMK AO1 10160 20120 52017
Loading
Personal Weather Stations






























Interactive Weather Map
Tropical Storm Tracking
New forecast layout! Learn more

10-Day Weather Forecast

Advertisements
Track Severe Weather on mobile